Time;durP1;ratioP1;P1;durP2;ratioP2;P2;SDS_P1;SDS_P2;PMS_P1;PMS_P2;Temp;Humidity;BMP_temperature;BMP_pressure;BME280_temperature;BME280_humidity;BME280_pressure;Samples;Min_cycle;Max_cycle;Signal;HPM_P1;HPM_P2
2022/06/12 00:00:22;;;;;;;5.45;3.10;;;;;;;;;;5094819;28;20024;-69
2022/06/12 00:02:47;;;;;;;5.40;3.38;;;;;;;;;;5095408;28;20085;-69
2022/06/12 00:05:16;;;;;;;8.00;3.60;;;;;;;;;;5095421;28;20527;-67
2022/06/12 00:07:42;;;;;;;4.55;3.38;;;;;;;;;;5095336;28;20043;-66
2022/06/12 00:10:10;;;;;;;5.85;3.25;;;;;;;;;;5095388;28;20020;-68
2022/06/12 00:12:38;;;;;;;6.20;3.50;;;;;;;;;;5095157;28;20380;-70
2022/06/12 00:15:05;;;;;;;6.15;3.40;;;;;;;;;;5095280;28;20036;-68
2022/06/12 00:17:31;;;;;;;5.28;3.15;;;;;;;;;;5095098;28;20036;-70
2022/06/12 00:19:56;;;;;;;6.63;3.63;;;;;;;;;;5095272;28;20032;-70
2022/06/12 00:22:23;;;;;;;5.78;3.80;;;;;;;;;;5094894;28;20044;-67
2022/06/12 00:24:48;;;;;;;4.82;3.50;;;;;;;;;;5094521;28;20038;-69
2022/06/12 00:27:15;;;;;;;5.05;3.55;;;;;;;;;;5093325;28;20153;-71
2022/06/12 00:29:42;;;;;;;5.18;3.33;;;;;;;;;;5094873;28;20032;-69
2022/06/12 00:32:09;;;;;;;5.30;3.40;;;;;;;;;;5090339;28;20580;-65
2022/06/12 00:34:39;;;;;;;5.07;3.35;;;;;;;;;;5076352;28;20063;-67
2022/06/12 00:37:05;;;;;;;3.40;2.80;;;;;;;;;;5074790;28;20028;-68
2022/06/12 00:39:32;;;;;;;4.38;3.17;;;;;;;;;;5074384;28;20020;-70
2022/06/12 00:42:00;;;;;;;6.35;3.40;;;;;;;;;;5074289;28;20040;-67
2022/06/12 00:44:32;;;;;;;7.65;4.03;;;;;;;;;;5074211;28;20025;-71
2022/06/12 00:47:05;;;;;;;6.05;3.80;;;;;;;;;;5074094;28;20355;-71
2022/06/12 00:49:52;;;;;;;6.47;3.80;;;;;;;;;;5074014;28;20558;-66
2022/06/12 00:52:43;;;;;;;4.57;3.70;;;;;;;;;;5077529;28;20303;-68
2022/06/12 00:55:29;;;;;;;4.47;3.67;;;;;;;;;;5086153;28;20071;-65
2022/06/12 00:58:11;;;;;;;5.13;3.40;;;;;;;;;;5091395;28;20032;-67
2022/06/12 01:00:38;;;;;;;5.65;3.63;;;;;;;;;;5091459;28;20040;-65
2022/06/12 01:03:05;;;;;;;4.43;3.28;;;;;;;;;;5090797;28;20043;-66
2022/06/12 01:08:18;;;;;;;6.10;4.05;;;;;;;;;;5091037;28;20103;-66
2022/06/12 01:10:46;;;;;;;4.45;3.60;;;;;;;;;;5091553;28;20177;-68
2022/06/12 01:13:36;;;;;;;6.68;3.53;;;;;;;;;;5091555;28;20467;-68
2022/06/12 01:16:11;;;;;;;5.40;3.50;;;;;;;;;;5091013;28;20032;-66
2022/06/12 01:18:45;;;;;;;6.60;3.08;;;;;;;;;;5091204;28;20035;-65
2022/06/12 01:21:47;;;;;;;4.40;3.40;;;;;;;;;;5091406;28;20048;-66
2022/06/12 01:24:36;;;;;;;7.75;3.50;;;;;;;;;;5083513;28;20044;-65
2022/06/12 01:27:11;;;;;;;4.40;3.20;;;;;;;;;;5071467;28;20033;-67
2022/06/12 01:30:08;;;;;;;6.72;3.35;;;;;;;;;;5088803;28;20078;-66
2022/06/12 01:32:41;;;;;;;4.90;3.80;;;;;;;;;;5078538;28;20046;-68
2022/06/12 01:35:32;;;;;;;5.38;3.90;;;;;;;;;;5089879;28;20032;-66
2022/06/12 01:38:11;;;;;;;7.85;3.45;;;;;;;;;;5089892;28;20120;-68
2022/06/12 01:41:07;;;;;;;4.00;3.47;;;;;;;;;;5090507;28;20032;-68
2022/06/12 01:43:43;;;;;;;4.55;3.53;;;;;;;;;;5080718;28;20040;-70
2022/06/12 01:46:27;;;;;;;6.10;3.85;;;;;;;;;;5091149;28;20024;-73
2022/06/12 01:49:03;;;;;;;6.78;4.57;;;;;;;;;;5090970;28;20032;-67
2022/06/12 01:51:35;;;;;;;5.00;3.50;;;;;;;;;;5090399;28;20039;-69
2022/06/12 01:54:09;;;;;;;3.97;3.33;;;;;;;;;;5089924;28;20028;-65
2022/06/12 01:56:41;;;;;;;5.32;3.65;;;;;;;;;;5090505;28;20024;-70
2022/06/12 01:59:17;;;;;;;9.60;3.30;;;;;;;;;;5090738;28;20055;-67
2022/06/12 02:02:03;;;;;;;4.57;3.53;;;;;;;;;;5090526;28;20169;-67
2022/06/12 02:04:33;;;;;;;5.28;3.50;;;;;;;;;;5090902;28;20123;-65
2022/06/12 02:07:22;;;;;;;16.42;5.43;;;;;;;;;;5090228;28;20048;-67
2022/06/12 02:09:59;;;;;;;6.20;4.28;;;;;;;;;;5090377;28;20043;-65
2022/06/12 02:15:46;;;;;;;6.07;3.70;;;;;;;;;;5070069;28;20083;-67
2022/06/12 02:18:53;;;;;;;8.73;4.00;;;;;;;;;;5083117;28;20115;-66
2022/06/12 02:21:28;;;;;;;8.13;3.50;;;;;;;;;;5084032;28;20051;-66
2022/06/12 02:24:07;;;;;;;6.72;3.42;;;;;;;;;;5070491;28;20036;-65
2022/06/12 02:26:57;;;;;;;5.72;3.78;;;;;;;;;;5089780;28;20020;-66
2022/06/12 02:29:28;;;;;;;9.07;3.80;;;;;;;;;;5089879;28;20511;-66
2022/06/12 02:31:55;;;;;;;6.07;3.50;;;;;;;;;;5089960;28;20043;-67
2022/06/12 02:34:30;;;;;;;5.25;3.47;;;;;;;;;;5090319;28;20050;-71
2022/06/12 02:37:01;;;;;;;9.85;3.67;;;;;;;;;;5089938;28;20048;-68
2022/06/12 02:39:34;;;;;;;5.70;3.20;;;;;;;;;;5090328;28;20093;-71
2022/06/12 02:42:08;;;;;;;7.43;3.83;;;;;;;;;;5070499;28;20502;-69
2022/06/12 02:44:42;;;;;;;6.68;3.75;;;;;;;;;;5089842;28;20189;-68
2022/06/12 02:47:22;;;;;;;5.30;3.20;;;;;;;;;;5090080;28;20432;-71
2022/06/12 02:49:50;;;;;;;6.00;3.88;;;;;;;;;;5090256;28;20390;-68
2022/06/12 02:52:23;;;;;;;8.13;3.97;;;;;;;;;;5089842;28;20057;-72
2022/06/12 02:55:10;;;;;;;10.18;4.53;;;;;;;;;;5090235;28;20083;-69
2022/06/12 02:57:51;;;;;;;9.25;4.18;;;;;;;;;;5090128;28;20433;-69
2022/06/12 03:00:43;;;;;;;8.75;4.20;;;;;;;;;;5090267;28;20511;-70
2022/06/12 03:03:15;;;;;;;5.63;3.78;;;;;;;;;;5070160;28;20032;-67
2022/06/12 03:05:46;;;;;;;6.88;4.28;;;;;;;;;;5078818;28;20028;-66
2022/06/12 03:08:16;;;;;;;8.25;4.85;;;;;;;;;;5089816;28;20467;-66
2022/06/12 03:10:48;;;;;;;7.38;4.68;;;;;;;;;;5090086;28;20035;-66
2022/06/12 03:13:15;;;;;;;7.07;4.35;;;;;;;;;;5087188;28;20749;-66
2022/06/12 03:15:52;;;;;;;9.07;4.30;;;;;;;;;;5089521;28;20024;-66
2022/06/12 03:18:32;;;;;;;14.98;5.95;;;;;;;;;;5089934;28;20032;-65
2022/06/12 03:21:11;;;;;;;10.02;4.85;;;;;;;;;;5071794;28;20052;-66
2022/06/12 03:23:45;;;;;;;8.80;4.85;;;;;;;;;;5090045;28;20402;-66
2022/06/12 03:26:21;;;;;;;7.93;4.90;;;;;;;;;;5086695;28;20032;-66
2022/06/12 03:29:04;;;;;;;10.52;5.57;;;;;;;;;;5093000;28;20028;-69
2022/06/12 03:31:38;;;;;;;9.45;4.53;;;;;;;;;;5084739;28;20048;-69
2022/06/12 03:34:27;;;;;;;8.48;4.40;;;;;;;;;;5093524;28;20040;-66
2022/06/12 03:37:03;;;;;;;11.25;4.05;;;;;;;;;;5093377;28;20028;-68
2022/06/12 03:39:42;;;;;;;6.55;3.45;;;;;;;;;;5093154;28;20476;-65
2022/06/12 03:42:20;;;;;;;5.35;3.65;;;;;;;;;;5093111;28;20390;-68
2022/06/12 03:45:09;;;;;;;7.35;3.53;;;;;;;;;;5093148;28;20038;-68
2022/06/12 03:47:53;;;;;;;8.40;3.30;;;;;;;;;;5092949;28;20032;-68
2022/06/12 03:50:46;;;;;;;5.93;3.20;;;;;;;;;;5093143;28;20035;-71
2022/06/12 03:53:15;;;;;;;5.88;3.80;;;;;;;;;;5092948;28;20032;-67
2022/06/12 03:58:47;;;;;;;5.55;3.88;;;;;;;;;;5085664;28;20042;-67
2022/06/12 04:01:14;;;;;;;10.75;4.50;;;;;;;;;;5073217;28;20028;-67
2022/06/12 04:03:43;;;;;;;4.85;3.65;;;;;;;;;;5073067;28;20024;-69
2022/06/12 04:06:19;;;;;;;5.38;3.55;;;;;;;;;;5072853;28;20040;-74
2022/06/12 04:08:56;;;;;;;6.47;4.10;;;;;;;;;;5091784;28;20032;-67
2022/06/12 04:11:25;;;;;;;4.43;3.00;;;;;;;;;;5092777;28;20028;-68
2022/06/12 04:13:52;;;;;;;9.43;3.80;;;;;;;;;;5092597;28;20058;-69
2022/06/12 04:16:27;;;;;;;7.13;3.83;;;;;;;;;;5092415;28;20078;-70
2022/06/12 04:18:54;;;;;;;6.55;4.10;;;;;;;;;;5092776;28;20043;-71
2022/06/12 04:21:33;;;;;;;8.63;4.10;;;;;;;;;;5092712;28;20048;-70
2022/06/12 04:24:16;;;;;;;4.97;3.70;;;;;;;;;;5072711;28;20395;-69
2022/06/12 04:26:54;;;;;;;6.65;4.10;;;;;;;;;;5090977;28;20024;-68
2022/06/12 04:29:26;;;;;;;6.43;4.13;;;;;;;;;;5092478;28;20032;-69
2022/06/12 04:31:56;;;;;;;6.25;3.80;;;;;;;;;;5092711;28;20032;-69
2022/06/12 04:34:24;;;;;;;4.68;3.58;;;;;;;;;;5092775;28;20501;-68
2022/06/12 04:36:54;;;;;;;7.97;4.20;;;;;;;;;;5092218;28;20020;-68
2022/06/12 04:39:24;;;;;;;11.60;4.15;;;;;;;;;;5076245;28;20035;-72
2022/06/12 04:41:51;;;;;;;5.85;4.25;;;;;;;;;;5074795;28;20032;-69
2022/06/12 04:44:18;;;;;;;9.82;4.72;;;;;;;;;;5074954;28;20028;-71
2022/06/12 04:46:47;;;;;;;11.10;5.43;;;;;;;;;;5074778;28;20036;-66
2022/06/12 04:49:21;;;;;;;13.25;4.35;;;;;;;;;;5074791;28;20027;-68
2022/06/12 04:51:49;;;;;;;8.35;4.50;;;;;;;;;;5074475;28;20455;-69
2022/06/12 04:54:15;;;;;;;9.25;4.30;;;;;;;;;;5074347;28;20020;-66
2022/06/12 04:56:41;;;;;;;7.30;4.18;;;;;;;;;;5074294;28;20083;-67
2022/06/12 04:59:08;;;;;;;7.25;4.25;;;;;;;;;;5074361;28;20488;-66
2022/06/12 05:01:34;;;;;;;6.35;3.88;;;;;;;;;;5081017;28;20524;-66
2022/06/12 05:04:02;;;;;;;8.20;3.97;;;;;;;;;;5079672;28;20468;-71
2022/06/12 05:06:30;;;;;;;5.47;3.88;;;;;;;;;;5074271;28;20483;-70
2022/06/12 05:08:56;;;;;;;9.13;3.90;;;;;;;;;;5079357;28;20044;-72
2022/06/12 05:11:22;;;;;;;10.52;4.38;;;;;;;;;;5080582;28;20507;-77
2022/06/12 05:13:49;;;;;;;5.57;4.10;;;;;;;;;;5094311;28;20016;-72
2022/06/12 05:16:40;;;;;;;8.95;4.72;;;;;;;;;;5092994;28;20107;-70
2022/06/12 05:19:10;;;;;;;7.28;4.20;;;;;;;;;;5093802;28;20448;-76
2022/06/12 05:21:36;;;;;;;6.78;4.20;;;;;;;;;;5093887;28;20043;-75
2022/06/12 05:24:03;;;;;;;10.52;4.30;;;;;;;;;;5093813;28;20031;-75
2022/06/12 05:26:33;;;;;;;6.93;4.35;;;;;;;;;;5093079;28;20394;-70
2022/06/12 05:29:04;;;;;;;7.57;4.38;;;;;;;;;;5085971;28;20478;-72
2022/06/12 05:31:30;;;;;;;9.88;4.60;;;;;;;;;;5093692;28;20040;-70
2022/06/12 05:33:56;;;;;;;10.90;5.07;;;;;;;;;;5086913;28;20036;-72
2022/06/12 05:36:23;;;;;;;8.40;4.63;;;;;;;;;;5078145;28;20086;-71
2022/06/12 05:38:50;;;;;;;9.50;4.40;;;;;;;;;;5073027;28;20471;-72
2022/06/12 05:41:16;;;;;;;10.30;4.65;;;;;;;;;;5085577;28;20042;-72
2022/06/12 05:43:42;;;;;;;8.45;4.32;;;;;;;;;;5093276;28;20063;-71
2022/06/12 05:46:11;;;;;;;6.75;3.95;;;;;;;;;;5092575;28;20115;-72
2022/06/12 05:48:39;;;;;;;7.72;4.00;;;;;;;;;;5093014;28;20020;-73
2022/06/12 05:51:05;;;;;;;7.35;4.05;;;;;;;;;;5092591;28;20083;-71
2022/06/12 05:53:36;;;;;;;6.63;3.67;;;;;;;;;;5093093;28;20047;-77
2022/06/12 05:56:12;;;;;;;7.03;3.90;;;;;;;;;;5093188;28;20437;-73
2022/06/12 05:58:38;;;;;;;5.60;3.40;;;;;;;;;;5093050;28;20028;-71
2022/06/12 06:01:09;;;;;;;6.10;3.80;;;;;;;;;;5090967;28;20035;-73
2022/06/12 06:03:35;;;;;;;6.35;3.60;;;;;;;;;;5086989;28;20037;-72
2022/06/12 06:06:02;;;;;;;8.15;4.47;;;;;;;;;;5081529;28;20028;-72
2022/06/12 06:08:28;;;;;;;10.93;4.35;;;;;;;;;;5072693;28;20068;-79
2022/06/12 06:10:54;;;;;;;8.07;4.13;;;;;;;;;;5072535;28;20028;-77
2022/06/12 06:13:20;;;;;;;6.72;3.60;;;;;;;;;;5072742;28;20029;-73
2022/06/12 06:15:47;;;;;;;5.80;3.63;;;;;;;;;;5090458;28;20470;-76
2022/06/12 06:18:13;;;;;;;7.63;3.83;;;;;;;;;;5092624;28;20036;-78
2022/06/12 06:20:39;;;;;;;7.70;3.75;;;;;;;;;;5092510;28;20840;-70
2022/06/12 06:23:06;;;;;;;8.27;3.75;;;;;;;;;;5092613;28;20043;-70
2022/06/12 06:25:34;;;;;;;7.45;3.60;;;;;;;;;;5092500;28;20474;-68
2022/06/12 06:28:00;;;;;;;5.18;4.25;;;;;;;;;;5092594;28;20614;-69
2022/06/12 06:30:27;;;;;;;7.43;4.05;;;;;;;;;;5090910;28;20020;-73
2022/06/12 06:32:54;;;;;;;7.30;4.53;;;;;;;;;;5083026;28;20072;-68
2022/06/12 06:35:20;;;;;;;5.60;3.97;;;;;;;;;;5072345;28;20054;-67
2022/06/12 06:37:47;;;;;;;8.80;3.78;;;;;;;;;;5090783;28;20036;-69
2022/06/12 06:40:19;;;;;;;14.27;7.68;;;;;;;;;;5091214;28;20020;-69
2022/06/12 06:42:44;;;;;;;5.90;3.80;;;;;;;;;;5091651;28;20157;-73
2022/06/12 06:47:57;;;;;;;7.38;3.80;;;;;;;;;;5091342;28;20483;-70
2022/06/12 06:50:23;;;;;;;7.22;3.78;;;;;;;;;;5092466;28;20020;-74
2022/06/12 06:52:50;;;;;;;5.47;2.90;;;;;;;;;;5092463;28;20071;-68
2022/06/12 06:55:16;;;;;;;4.30;2.95;;;;;;;;;;5089326;28;20026;-69
2022/06/12 06:57:44;;;;;;;6.75;2.88;;;;;;;;;;5091614;28;20035;-68
2022/06/12 07:00:17;;;;;;;6.18;3.03;;;;;;;;;;5090590;28;20052;-68
2022/06/12 07:02:43;;;;;;;4.43;2.88;;;;;;;;;;5094562;28;20058;-69
2022/06/12 07:05:09;;;;;;;5.32;2.67;;;;;;;;;;5094751;28;20031;-69
2022/06/12 07:07:36;;;;;;;5.47;2.50;;;;;;;;;;5094939;28;20089;-69
2022/06/12 07:10:05;;;;;;;3.70;2.53;;;;;;;;;;5094501;28;20091;-70
2022/06/12 07:12:31;;;;;;;6.70;2.60;;;;;;;;;;5094859;28;20097;-68
2022/06/12 07:14:57;;;;;;;3.60;2.58;;;;;;;;;;5095468;28;20405;-74
2022/06/12 07:17:23;;;;;;;4.80;2.42;;;;;;;;;;5094275;28;20483;-69
2022/06/12 07:19:49;;;;;;;3.42;2.35;;;;;;;;;;5094846;28;20459;-69
2022/06/12 07:22:15;;;;;;;3.63;2.67;;;;;;;;;;5094493;28;20494;-70
2022/06/12 07:24:42;;;;;;;3.00;2.40;;;;;;;;;;5094493;28;20032;-69
2022/06/12 07:27:08;;;;;;;3.72;2.22;;;;;;;;;;5084746;28;20068;-71
2022/06/12 07:29:34;;;;;;;3.17;2.40;;;;;;;;;;5081597;28;20035;-69
2022/06/12 07:32:00;;;;;;;5.40;2.00;;;;;;;;;;5089060;28;20040;-69
2022/06/12 07:34:27;;;;;;;4.72;2.38;;;;;;;;;;5074145;28;20040;-68
2022/06/12 07:36:54;;;;;;;6.47;2.20;;;;;;;;;;5075645;28;20036;-69
2022/06/12 07:39:24;;;;;;;3.47;2.05;;;;;;;;;;5075443;28;20122;-74
2022/06/12 07:41:51;;;;;;;5.75;2.10;;;;;;;;;;5075183;28;20036;-70
2022/06/12 07:44:20;;;;;;;2.88;1.80;;;;;;;;;;5075430;28;20025;-71
2022/06/12 07:46:48;;;;;;;3.97;2.03;;;;;;;;;;5075248;28;20040;-68
2022/06/12 07:49:18;;;;;;;2.10;1.88;;;;;;;;;;5075017;28;20033;-72
2022/06/12 07:51:44;;;;;;;4.00;2.30;;;;;;;;;;5074889;28;20036;-69
2022/06/12 07:54:10;;;;;;;4.25;2.13;;;;;;;;;;5075232;28;20017;-73
2022/06/12 07:56:37;;;;;;;3.63;2.15;;;;;;;;;;5090793;28;20476;-73
2022/06/12 07:59:04;;;;;;;3.03;1.92;;;;;;;;;;5075075;28;20525;-71
2022/06/12 08:01:30;;;;;;;2.80;2.00;;;;;;;;;;5090805;28;20120;-71
2022/06/12 08:03:57;;;;;;;5.95;2.20;;;;;;;;;;5074915;28;20029;-69
2022/06/12 08:06:24;;;;;;;4.70;2.10;;;;;;;;;;5074818;28;20432;-69
2022/06/12 08:08:50;;;;;;;3.42;2.20;;;;;;;;;;5074584;28;20471;-71
2022/06/12 08:11:18;;;;;;;3.08;2.15;;;;;;;;;;5074307;28;20055;-70
2022/06/12 08:13:44;;;;;;;5.97;2.00;;;;;;;;;;5073801;28;20039;-70
2022/06/12 08:16:11;;;;;;;3.35;2.00;;;;;;;;;;5084444;28;20028;-74
2022/06/12 08:18:37;;;;;;;4.03;2.08;;;;;;;;;;5094626;28;20043;-70
2022/06/12 08:21:09;;;;;;;5.13;2.58;;;;;;;;;;5094302;28;20490;-68
2022/06/12 08:23:44;;;;;;;2.60;2.00;;;;;;;;;;5094724;28;20382;-68
2022/06/12 08:26:30;;;;;;;3.47;1.85;;;;;;;;;;5094526;28;20071;-69
2022/06/12 08:29:03;;;;;;;3.47;1.95;;;;;;;;;;5094818;28;20032;-72
2022/06/12 08:31:37;;;;;;;4.63;2.30;;;;;;;;;;5095506;28;20032;-69
2022/06/12 08:34:08;;;;;;;6.72;2.65;;;;;;;;;;5094112;28;20567;-70
2022/06/12 08:36:35;;;;;;;4.43;2.15;;;;;;;;;;5093965;28;20032;-69
2022/06/12 08:39:03;;;;;;;2.63;2.15;;;;;;;;;;5093355;28;20028;-68
2022/06/12 08:41:51;;;;;;;5.57;2.47;;;;;;;;;;5093928;28;20058;-69
2022/06/12 08:44:32;;;;;;;3.55;2.30;;;;;;;;;;5093390;28;20121;-69
2022/06/12 08:47:20;;;;;;;3.47;2.30;;;;;;;;;;5094278;28;20081;-69
2022/06/12 08:49:56;;;;;;;4.38;2.38;;;;;;;;;;5093310;28;20033;-69
2022/06/12 08:52:47;;;;;;;2.88;2.22;;;;;;;;;;5093871;28;20097;-69
2022/06/12 08:55:38;;;;;;;4.18;2.00;;;;;;;;;;5080731;28;20028;-68
2022/06/12 08:58:16;;;;;;;2.90;2.22;;;;;;;;;;5090425;28;20383;-68
2022/06/12 09:00:44;;;;;;;4.32;2.20;;;;;;;;;;5092259;28;20028;-70
2022/06/12 09:03:18;;;;;;;3.25;2.17;;;;;;;;;;5093201;28;20145;-69
2022/06/12 09:05:51;;;;;;;4.97;2.20;;;;;;;;;;5093850;28;20110;-69
2022/06/12 09:08:38;;;;;;;5.28;2.40;;;;;;;;;;5093719;28;20040;-72
2022/06/12 09:11:46;;;;;;;2.53;2.03;;;;;;;;;;5087084;28;20085;-69
2022/06/12 09:14:33;;;;;;;3.45;2.38;;;;;;;;;;5031004;28;20075;-69
2022/06/12 09:17:06;;;;;;;3.55;2.30;;;;;;;;;;5027713;28;20120;-72
2022/06/12 09:19:39;;;;;;;2.83;2.05;;;;;;;;;;5073214;28;20390;-69
2022/06/12 09:22:13;;;;;;;;;;;;;;;;;;5090008;28;20036;-71
2022/06/12 09:24:47;;;;;;;2.70;2.22;;;;;;;;;;5092032;28;19916;-72
2022/06/12 09:27:28;;;;;;;4.60;2.10;;;;;;;;;;5092718;28;20042;-75
2022/06/12 09:30:11;;;;;;;4.70;2.20;;;;;;;;;;5091778;28;20173;-69
2022/06/12 09:32:57;;;;;;;3.40;2.60;;;;;;;;;;5090718;28;20028;-71
2022/06/12 09:35:38;;;;;;;3.13;2.10;;;;;;;;;;5090504;28;20036;-71
2022/06/12 09:38:33;;;;;;;4.35;2.33;;;;;;;;;;5091120;28;20452;-70
2022/06/12 09:41:07;;;;;;;3.00;2.50;;;;;;;;;;5082035;28;20040;-76
2022/06/12 09:43:42;;;;;;;2.72;2.10;;;;;;;;;;5091701;28;20032;-74
2022/06/12 09:46:17;;;;;;;3.38;2.50;;;;;;;;;;5091943;28;20089;-76
2022/06/12 09:49:06;;;;;;;3.28;2.13;;;;;;;;;;5093376;28;20040;-75
2022/06/12 09:51:38;;;;;;;3.60;2.10;;;;;;;;;;5093345;28;20123;-74
2022/06/12 09:54:38;;;;;;;3.25;2.40;;;;;;;;;;5093385;28;20394;-68
2022/06/12 09:57:13;;;;;;;3.92;2.20;;;;;;;;;;5093056;28;20036;-69
2022/06/12 09:59:46;;;;;;;4.13;3.10;;;;;;;;;;5088817;28;20303;-77
2022/06/12 10:02:21;;;;;;;7.90;3.17;;;;;;;;;;5080608;28;20038;-77
2022/06/12 10:05:04;;;;;;;5.45;2.80;;;;;;;;;;5072207;28;20123;-68
2022/06/12 10:07:39;;;;;;;8.13;4.30;;;;;;;;;;5071019;28;20067;-67
2022/06/12 10:10:33;;;;;;;6.97;5.18;;;;;;;;;;5072090;28;20029;-70
2022/06/12 10:13:07;;;;;;;7.78;5.13;;;;;;;;;;5071518;28;20185;-71
2022/06/12 10:15:47;;;;;;;3.42;2.10;;;;;;;;;;5071044;28;20119;-72
2022/06/12 10:18:20;;;;;;;4.07;2.92;;;;;;;;;;5071173;28;20039;-70
2022/06/12 10:20:56;;;;;;;4.70;3.15;;;;;;;;;;5071694;28;20445;-74
2022/06/12 10:23:23;;;;;;;3.00;2.50;;;;;;;;;;5070991;28;20133;-72
2022/06/12 10:25:56;;;;;;;6.45;3.97;;;;;;;;;;5071973;28;20035;-72
2022/06/12 10:28:33;;;;;;;11.07;5.97;;;;;;;;;;5071535;28;20043;-74
2022/06/12 10:31:26;;;;;;;5.78;3.20;;;;;;;;;;5071089;28;20123;-74
2022/06/12 10:34:03;;;;;;;6.18;4.97;;;;;;;;;;5069379;28;20439;-75
2022/06/12 10:36:32;;;;;;;7.88;5.43;;;;;;;;;;5074988;28;20028;-69
2022/06/12 10:39:20;;;;;;;7.93;5.18;;;;;;;;;;5077982;28;20028;-74
2022/06/12 10:41:51;;;;;;;7.25;5.43;;;;;;;;;;5078413;28;20047;-73
2022/06/12 10:44:30;;;;;;;7.88;5.40;;;;;;;;;;5085155;28;20530;-73
2022/06/12 10:47:15;;;;;;;7.47;5.28;;;;;;;;;;5098292;28;20028;-68
2022/06/12 10:49:42;;;;;;;6.78;4.50;;;;;;;;;;5096256;28;20032;-72
2022/06/12 10:52:20;;;;;;;6.85;5.00;;;;;;;;;;5092921;28;20103;-70
2022/06/12 10:54:48;;;;;;;9.45;3.65;;;;;;;;;;5097475;28;20032;-69
2022/06/12 10:57:42;;;;;;;5.75;4.07;;;;;;;;;;5097074;28;20027;-76
2022/06/12 11:00:19;;;;;;;5.55;4.00;;;;;;;;;;5096068;28;20028;-73
2022/06/12 11:03:03;;;;;;;8.45;2.60;;;;;;;;;;5096852;28;20107;-72
2022/06/12 11:05:38;;;;;;;10.82;6.72;;;;;;;;;;5097811;28;20547;-69
2022/06/12 11:08:16;;;;;;;5.80;4.53;;;;;;;;;;5097742;28;20513;-70
2022/06/12 11:11:11;;;;;;;5.07;3.95;;;;;;;;;;5098407;28;20390;-71
2022/06/12 11:13:59;;;;;;;7.00;3.35;;;;;;;;;;5082637;28;20056;-75
2022/06/12 11:16:56;;;;;;;6.47;4.68;;;;;;;;;;5098388;28;20039;-73
2022/06/12 11:19:55;;;;;;;3.97;3.38;;;;;;;;;;5098561;28;20059;-73
2022/06/12 11:22:48;;;;;;;5.40;3.17;;;;;;;;;;5095076;28;20036;-73
2022/06/12 11:25:14;;;;;;;;;;;;;;;;;;5077975;28;20044;-77
2022/06/12 11:28:01;;;;;;;4.90;3.10;;;;;;;;;;5077713;28;19912;-72
2022/06/12 11:30:40;;;;;;;6.18;3.63;;;;;;;;;;5082037;28;20032;-79
2022/06/12 11:33:28;;;;;;;4.68;3.15;;;;;;;;;;5083799;28;20044;-73
2022/06/12 11:36:31;;;;;;;6.10;3.85;;;;;;;;;;5097561;28;20372;-68
2022/06/12 11:39:31;;;;;;;5.28;4.05;;;;;;;;;;5092684;28;20044;-77
2022/06/12 11:42:12;;;;;;;5.00;3.75;;;;;;;;;;5086596;28;20036;-76
2022/06/12 11:44:40;;;;;;;4.45;3.33;;;;;;;;;;5097247;28;20032;-72
2022/06/12 11:47:17;;;;;;;4.88;3.30;;;;;;;;;;5095646;28;20029;-75
2022/06/12 11:49:51;;;;;;;3.63;2.80;;;;;;;;;;5094215;28;20056;-73
2022/06/12 11:52:32;;;;;;;5.25;3.63;;;;;;;;;;5093674;28;20047;-79
2022/06/12 11:55:09;;;;;;;2.90;2.58;;;;;;;;;;5094373;28;20034;-76
2022/06/12 11:57:49;;;;;;;5.63;3.10;;;;;;;;;;5094115;28;20032;-77
2022/06/12 12:00:28;;;;;;;4.55;2.85;;;;;;;;;;5093618;28;20052;-76
2022/06/12 12:03:32;;;;;;;4.07;2.75;;;;;;;;;;5092508;28;20043;-71
2022/06/12 12:06:28;;;;;;;4.93;2.75;;;;;;;;;;5051915;28;20032;-68
2022/06/12 12:09:18;;;;;;;6.25;2.92;;;;;;;;;;5051584;28;20037;-68
2022/06/12 12:11:48;;;;;;;7.38;2.92;;;;;;;;;;5085603;28;20066;-77
2022/06/12 12:14:27;;;;;;;3.85;2.80;;;;;;;;;;5094635;28;20028;-72
2022/06/12 12:16:59;;;;;;;3.70;2.60;;;;;;;;;;5097415;28;20036;-71
2022/06/12 12:19:38;;;;;;;3.50;2.70;;;;;;;;;;5096049;28;20036;-73
2022/06/12 12:22:31;;;;;;;3.55;2.80;;;;;;;;;;5093187;28;20398;-79
2022/06/12 12:25:08;;;;;;;8.32;3.00;;;;;;;;;;5086638;28;20047;-79
2022/06/12 12:27:39;;;;;;;6.05;2.80;;;;;;;;;;5094853;28;20024;-71
2022/06/12 12:30:31;;;;;;;4.85;2.83;;;;;;;;;;5094022;28;20028;-80
2022/06/12 12:33:00;;;;;;;4.75;2.80;;;;;;;;;;5094477;28;20429;-80
2022/06/12 12:41:48;;;;;;;5.72;3.33;;;;;;;;;;5094269;28;20057;-78
2022/06/12 12:44:35;;;;;;;3.88;2.80;;;;;;;;;;5070189;28;20525;-78
2022/06/12 12:47:02;;;;;;;4.15;3.05;;;;;;;;;;5094449;28;20120;-79
2022/06/12 12:49:34;;;;;;;3.10;2.38;;;;;;;;;;5092957;28;20031;-75
2022/06/12 12:52:05;;;;;;;3.53;3.10;;;;;;;;;;5094005;28;20053;-73
2022/06/12 12:54:46;;;;;;;6.32;3.00;;;;;;;;;;5094288;28;20028;-73
2022/06/12 12:57:40;;;;;;;3.90;2.60;;;;;;;;;;5094008;28;20024;-76
2022/06/12 13:00:23;;;;;;;6.30;2.40;;;;;;;;;;5090825;28;20399;-78
2022/06/12 13:02:53;;;;;;;5.85;2.42;;;;;;;;;;5093805;28;20036;-70
2022/06/12 13:05:26;;;;;;;4.53;2.70;;;;;;;;;;5093891;28;20027;-70
2022/06/12 13:07:55;;;;;;;5.85;2.63;;;;;;;;;;5093145;28;20032;-73
2022/06/12 13:10:50;;;;;;;5.40;2.80;;;;;;;;;;5093582;28;20560;-71
2022/06/12 13:13:25;;;;;;;5.07;2.60;;;;;;;;;;5093546;28;20086;-70
2022/06/12 13:16:05;;;;;;;3.38;2.70;;;;;;;;;;5093619;28;20440;-70
2022/06/12 13:18:59;;;;;;;5.82;2.60;;;;;;;;;;5083140;28;20111;-70
2022/06/12 13:21:54;;;;;;;3.92;2.45;;;;;;;;;;5072909;28;20415;-72
2022/06/12 13:24:44;;;;;;;3.20;2.38;;;;;;;;;;5064082;28;20049;-71
2022/06/12 13:27:24;;;;;;;7.57;2.90;;;;;;;;;;5071877;28;20462;-73
2022/06/12 13:29:51;;;;;;;4.25;2.90;;;;;;;;;;5072789;28;20082;-78
2022/06/12 13:32:26;;;;;;;4.25;2.72;;;;;;;;;;5072977;28;20025;-74
2022/06/12 13:35:00;;;;;;;3.80;2.60;;;;;;;;;;5068603;28;20067;-78
2022/06/12 13:37:29;;;;;;;4.85;2.63;;;;;;;;;;5072779;28;20070;-80
2022/06/12 13:39:55;;;;;;;4.57;2.72;;;;;;;;;;5072801;28;20100;-79
2022/06/12 13:42:27;;;;;;;3.80;2.60;;;;;;;;;;5072770;28;20454;-73
2022/06/12 13:44:55;;;;;;;3.67;2.83;;;;;;;;;;5074853;28;20126;-80
2022/06/12 13:47:47;;;;;;;6.25;2.92;;;;;;;;;;5092847;28;20111;-73
2022/06/12 13:50:13;;;;;;;10.73;2.90;;;;;;;;;;5090126;28;20112;-79
2022/06/12 13:52:42;;;;;;;5.43;3.15;;;;;;;;;;5093042;28;20110;-79
2022/06/12 13:55:27;;;;;;;3.65;2.83;;;;;;;;;;5093254;28;20499;-75
2022/06/12 13:57:59;;;;;;;4.93;2.78;;;;;;;;;;5087698;28;20085;-75
2022/06/12 14:00:33;;;;;;;5.03;2.80;;;;;;;;;;5090623;28;20040;-74
2022/06/12 14:03:00;;;;;;;5.60;2.78;;;;;;;;;;5092981;28;20139;-74
2022/06/12 14:05:33;;;;;;;3.40;2.70;;;;;;;;;;5093428;28;20028;-74
2022/06/12 14:08:03;;;;;;;5.05;3.03;;;;;;;;;;5091571;28;20478;-74
2022/06/12 14:10:34;;;;;;;7.60;3.20;;;;;;;;;;5099131;28;20043;-74
2022/06/12 14:13:06;;;;;;;4.65;3.00;;;;;;;;;;5094753;28;20044;-70
2022/06/12 14:15:38;;;;;;;4.53;2.83;;;;;;;;;;5092568;28;20032;-76
2022/06/12 14:18:06;;;;;;;5.05;3.25;;;;;;;;;;5091179;28;20032;-78
2022/06/12 14:20:38;;;;;;;5.97;3.20;;;;;;;;;;5092384;28;20044;-79
2022/06/12 14:23:28;;;;;;;5.32;3.13;;;;;;;;;;5092601;28;20032;-71
2022/06/12 14:26:24;;;;;;;3.35;2.92;;;;;;;;;;5092465;28;20036;-72
2022/06/12 14:28:51;;;;;;;4.38;3.38;;;;;;;;;;5092446;28;20489;-70
2022/06/12 14:31:16;;;;;;;5.82;2.90;;;;;;;;;;5092279;28;20024;-72
2022/06/12 14:33:54;;;;;;;3.88;2.83;;;;;;;;;;5092061;28;20467;-75
2022/06/12 14:36:49;;;;;;;3.97;2.80;;;;;;;;;;5091970;28;20110;-72
2022/06/12 14:39:29;;;;;;;3.95;2.88;;;;;;;;;;5089476;28;20116;-71
2022/06/12 14:42:10;;;;;;;4.60;2.92;;;;;;;;;;5091150;28;20790;-70
2022/06/12 14:44:38;;;;;;;3.95;3.10;;;;;;;;;;5091391;28;20115;-70
2022/06/12 14:47:17;;;;;;;7.30;2.92;;;;;;;;;;5079403;28;20150;-68
2022/06/12 14:49:43;;;;;;;4.60;3.10;;;;;;;;;;5092084;28;20055;-70
2022/06/12 14:52:09;;;;;;;10.70;3.80;;;;;;;;;;5091999;28;20375;-71
2022/06/12 14:54:35;;;;;;;3.20;2.72;;;;;;;;;;5092349;28;20131;-69
2022/06/12 14:57:04;;;;;;;3.83;2.78;;;;;;;;;;5092184;28;20062;-71
2022/06/12 14:59:31;;;;;;;4.43;2.90;;;;;;;;;;5092032;28;20040;-69
2022/06/12 15:01:57;;;;;;;6.63;2.90;;;;;;;;;;5092029;28;20039;-70
2022/06/12 15:04:23;;;;;;;3.88;3.00;;;;;;;;;;5091933;28;20032;-70
2022/06/12 15:06:49;;;;;;;3.30;3.00;;;;;;;;;;5091826;28;20024;-70
2022/06/12 15:09:15;;;;;;;4.90;3.17;;;;;;;;;;5091833;28;20039;-67
2022/06/12 15:11:42;;;;;;;4.05;2.83;;;;;;;;;;5091780;28;20028;-73
2022/06/12 15:14:19;;;;;;;4.47;3.42;;;;;;;;;;5091995;28;20028;-78
2022/06/12 15:16:46;;;;;;;4.53;3.10;;;;;;;;;;5091782;28;20478;-78
2022/06/12 15:19:12;;;;;;;4.30;3.15;;;;;;;;;;5091519;28;20035;-77
2022/06/12 15:21:42;;;;;;;7.80;3.30;;;;;;;;;;5091484;28;20048;-75
2022/06/12 15:24:16;;;;;;;6.28;2.90;;;;;;;;;;5094932;28;20024;-69
2022/06/12 15:29:46;;;;;;;7.65;2.80;;;;;;;;;;5095544;28;20028;-76
2022/06/12 15:32:16;;;;;;;3.90;2.90;;;;;;;;;;5082723;28;20028;-79
2022/06/12 15:34:42;;;;;;;5.47;2.90;;;;;;;;;;5074306;28;20126;-79
2022/06/12 15:37:09;;;;;;;4.30;3.03;;;;;;;;;;5074312;28;20027;-74
2022/06/12 15:39:36;;;;;;;8.90;2.90;;;;;;;;;;5073998;28;20169;-78
2022/06/12 15:42:02;;;;;;;6.55;3.08;;;;;;;;;;5076359;28;20482;-78
2022/06/12 15:44:28;;;;;;;4.65;2.97;;;;;;;;;;5083694;28;20029;-82
2022/06/12 15:46:54;;;;;;;4.20;3.03;;;;;;;;;;5073646;28;20024;-82